sensor_id;sensor_type;location;lat;lon;timestamp;P1;durP1;ratioP1;P2;durP2;ratioP2
49392;SDS011;35268;42.642;23.308;2023-09-19T00:00:20;13.00;;;4.70;;
49392;SDS011;35268;42.642;23.308;2023-09-19T00:02:51;9.27;;;4.63;;
49392;SDS011;35268;42.642;23.308;2023-09-19T00:05:18;9.20;;;5.55;;
49392;SDS011;35268;42.642;23.308;2023-09-19T00:07:44;14.43;;;4.50;;
49392;SDS011;35268;42.642;23.308;2023-09-19T00:10:10;7.47;;;5.63;;
49392;SDS011;35268;42.642;23.308;2023-09-19T00:12:35;9.05;;;4.97;;
49392;SDS011;35268;42.642;23.308;2023-09-19T00:15:00;7.88;;;4.63;;
49392;SDS011;35268;42.642;23.308;2023-09-19T00:17:30;15.93;;;5.53;;
49392;SDS011;35268;42.642;23.308;2023-09-19T00:19:57;9.63;;;5.10;;
49392;SDS011;35268;42.642;23.308;2023-09-19T00:22:22;9.07;;;5.00;;
49392;SDS011;35268;42.642;23.308;2023-09-19T00:24:51;12.13;;;5.22;;
49392;SDS011;35268;42.642;23.308;2023-09-19T00:27:17;8.38;;;5.03;;
49392;SDS011;35268;42.642;23.308;2023-09-19T00:29:43;9.23;;;5.53;;
49392;SDS011;35268;42.642;23.308;2023-09-19T00:32:09;7.70;;;4.97;;
49392;SDS011;35268;42.642;23.308;2023-09-19T00:34:34;19.58;;;6.15;;
49392;SDS011;35268;42.642;23.308;2023-09-19T00:37:00;9.40;;;5.18;;
49392;SDS011;35268;42.642;23.308;2023-09-19T00:39:26;9.60;;;5.45;;
49392;SDS011;35268;42.642;23.308;2023-09-19T00:41:52;6.43;;;4.85;;
49392;SDS011;35268;42.642;23.308;2023-09-19T00:44:19;9.38;;;4.88;;
49392;SDS011;35268;42.642;23.308;2023-09-19T00:46:48;11.52;;;4.85;;
49392;SDS011;35268;42.642;23.308;2023-09-19T00:49:15;8.75;;;4.82;;
49392;SDS011;35268;42.642;23.308;2023-09-19T00:51:41;8.75;;;5.43;;
49392;SDS011;35268;42.642;23.308;2023-09-19T00:54:06;14.38;;;5.60;;
49392;SDS011;35268;42.642;23.308;2023-09-19T00:56:32;19.30;;;5.57;;
49392;SDS011;35268;42.642;23.308;2023-09-19T00:58:58;7.80;;;4.93;;
49392;SDS011;35268;42.642;23.308;2023-09-19T01:01:24;11.20;;;5.00;;
49392;SDS011;35268;42.642;23.308;2023-09-19T01:03:50;10.65;;;5.00;;
49392;SDS011;35268;42.642;23.308;2023-09-19T01:06:16;9.98;;;5.75;;
49392;SDS011;35268;42.642;23.308;2023-09-19T01:08:42;10.10;;;5.45;;
49392;SDS011;35268;42.642;23.308;2023-09-19T01:16:53;8.38;;;5.00;;
49392;SDS011;35268;42.642;23.308;2023-09-19T01:19:54;9.20;;;5.60;;
49392;SDS011;35268;42.642;23.308;2023-09-19T01:22:21;12.32;;;5.32;;
49392;SDS011;35268;42.642;23.308;2023-09-19T01:30:20;11.07;;;5.55;;
49392;SDS011;35268;42.642;23.308;2023-09-19T01:32:50;10.05;;;5.68;;
49392;SDS011;35268;42.642;23.308;2023-09-19T01:35:17;8.88;;;5.72;;
49392;SDS011;35268;42.642;23.308;2023-09-19T01:37:43;7.90;;;5.60;;
49392;SDS011;35268;42.642;23.308;2023-09-19T01:40:10;16.20;;;5.95;;
49392;SDS011;35268;42.642;23.308;2023-09-19T01:43:02;9.77;;;5.53;;
49392;SDS011;35268;42.642;23.308;2023-09-19T01:48:29;11.60;;;5.68;;
49392;SDS011;35268;42.642;23.308;2023-09-19T01:51:08;7.82;;;5.18;;
49392;SDS011;35268;42.642;23.308;2023-09-19T01:53:45;10.27;;;6.05;;
49392;SDS011;35268;42.642;23.308;2023-09-19T01:58:59;10.27;;;5.57;;
49392;SDS011;35268;42.642;23.308;2023-09-19T02:01:34;8.95;;;5.60;;
49392;SDS011;35268;42.642;23.308;2023-09-19T02:04:02;10.30;;;5.32;;
49392;SDS011;35268;42.642;23.308;2023-09-19T02:06:27;9.68;;;5.35;;
49392;SDS011;35268;42.642;23.308;2023-09-19T02:08:53;12.10;;;5.03;;
49392;SDS011;35268;42.642;23.308;2023-09-19T02:11:19;11.50;;;5.53;;
49392;SDS011;35268;42.642;23.308;2023-09-19T02:13:45;12.93;;;5.97;;
49392;SDS011;35268;42.642;23.308;2023-09-19T02:16:11;11.45;;;5.78;;
49392;SDS011;35268;42.642;23.308;2023-09-19T02:18:37;11.77;;;6.25;;
49392;SDS011;35268;42.642;23.308;2023-09-19T02:21:04;8.48;;;5.20;;
49392;SDS011;35268;42.642;23.308;2023-09-19T02:23:31;8.95;;;5.80;;
49392;SDS011;35268;42.642;23.308;2023-09-19T02:25:58;9.50;;;5.40;;
49392;SDS011;35268;42.642;23.308;2023-09-19T02:28:27;11.07;;;5.43;;
49392;SDS011;35268;42.642;23.308;2023-09-19T02:30:57;11.93;;;6.75;;
49392;SDS011;35268;42.642;23.308;2023-09-19T02:33:23;11.20;;;5.85;;
49392;SDS011;35268;42.642;23.308;2023-09-19T02:35:48;10.93;;;5.75;;
49392;SDS011;35268;42.642;23.308;2023-09-19T02:38:14;12.75;;;6.07;;
49392;SDS011;35268;42.642;23.308;2023-09-19T02:40:43;9.57;;;5.43;;
49392;SDS011;35268;42.642;23.308;2023-09-19T02:43:09;10.25;;;5.45;;
49392;SDS011;35268;42.642;23.308;2023-09-19T02:45:35;7.90;;;5.05;;
49392;SDS011;35268;42.642;23.308;2023-09-19T02:48:00;12.30;;;5.85;;
49392;SDS011;35268;42.642;23.308;2023-09-19T02:50:29;8.95;;;4.95;;
49392;SDS011;35268;42.642;23.308;2023-09-19T02:52:54;8.70;;;5.72;;
49392;SDS011;35268;42.642;23.308;2023-09-19T02:55:20;10.40;;;5.57;;
49392;SDS011;35268;42.642;23.308;2023-09-19T02:57:50;9.35;;;6.05;;
49392;SDS011;35268;42.642;23.308;2023-09-19T03:00:17;9.15;;;5.22;;
49392;SDS011;35268;42.642;23.308;2023-09-19T03:02:47;12.38;;;5.95;;
49392;SDS011;35268;42.642;23.308;2023-09-19T03:05:14;9.05;;;5.72;;
49392;SDS011;35268;42.642;23.308;2023-09-19T03:07:40;10.57;;;5.72;;
49392;SDS011;35268;42.642;23.308;2023-09-19T03:10:08;11.63;;;5.32;;
49392;SDS011;35268;42.642;23.308;2023-09-19T03:12:34;8.90;;;5.53;;
49392;SDS011;35268;42.642;23.308;2023-09-19T03:15:00;14.35;;;5.95;;
49392;SDS011;35268;42.642;23.308;2023-09-19T03:17:26;14.70;;;5.60;;
49392;SDS011;35268;42.642;23.308;2023-09-19T03:19:52;9.35;;;6.10;;
49392;SDS011;35268;42.642;23.308;2023-09-19T03:22:22;7.53;;;5.20;;
49392;SDS011;35268;42.642;23.308;2023-09-19T03:24:47;7.80;;;5.43;;
49392;SDS011;35268;42.642;23.308;2023-09-19T03:27:13;10.63;;;6.90;;
49392;SDS011;35268;42.642;23.308;2023-09-19T03:29:41;11.73;;;6.32;;
49392;SDS011;35268;42.642;23.308;2023-09-19T03:32:07;14.68;;;7.03;;
49392;SDS011;35268;42.642;23.308;2023-09-19T03:34:36;12.90;;;6.72;;
49392;SDS011;35268;42.642;23.308;2023-09-19T03:37:09;10.98;;;6.03;;
49392;SDS011;35268;42.642;23.308;2023-09-19T03:39:34;10.88;;;6.25;;
49392;SDS011;35268;42.642;23.308;2023-09-19T03:42:00;12.77;;;6.38;;
49392;SDS011;35268;42.642;23.308;2023-09-19T03:44:28;9.32;;;5.75;;
49392;SDS011;35268;42.642;23.308;2023-09-19T03:46:53;14.82;;;6.13;;
49392;SDS011;35268;42.642;23.308;2023-09-19T03:49:20;11.73;;;6.00;;
49392;SDS011;35268;42.642;23.308;2023-09-19T03:51:45;10.95;;;5.57;;
49392;SDS011;35268;42.642;23.308;2023-09-19T03:54:11;8.30;;;5.43;;
49392;SDS011;35268;42.642;23.308;2023-09-19T03:56:37;13.32;;;6.18;;
49392;SDS011;35268;42.642;23.308;2023-09-19T03:59:03;10.43;;;6.38;;
49392;SDS011;35268;42.642;23.308;2023-09-19T04:01:28;10.80;;;6.55;;
49392;SDS011;35268;42.642;23.308;2023-09-19T04:03:56;10.93;;;5.68;;
49392;SDS011;35268;42.642;23.308;2023-09-19T04:06:22;10.70;;;6.05;;
49392;SDS011;35268;42.642;23.308;2023-09-19T04:08:48;17.77;;;7.63;;
49392;SDS011;35268;42.642;23.308;2023-09-19T04:11:13;12.18;;;6.05;;
49392;SDS011;35268;42.642;23.308;2023-09-19T04:13:39;9.93;;;6.10;;
49392;SDS011;35268;42.642;23.308;2023-09-19T04:16:04;10.63;;;5.68;;
49392;SDS011;35268;42.642;23.308;2023-09-19T04:18:31;12.43;;;6.72;;
49392;SDS011;35268;42.642;23.308;2023-09-19T04:20:58;12.43;;;6.47;;
49392;SDS011;35268;42.642;23.308;2023-09-19T04:23:24;10.10;;;6.35;;
49392;SDS011;35268;42.642;23.308;2023-09-19T04:25:50;13.18;;;6.88;;
49392;SDS011;35268;42.642;23.308;2023-09-19T04:28:16;12.80;;;5.90;;
49392;SDS011;35268;42.642;23.308;2023-09-19T04:30:41;10.48;;;6.32;;
49392;SDS011;35268;42.642;23.308;2023-09-19T04:33:07;13.93;;;7.15;;
49392;SDS011;35268;42.642;23.308;2023-09-19T04:35:33;9.95;;;6.13;;
49392;SDS011;35268;42.642;23.308;2023-09-19T04:37:59;18.38;;;7.22;;
49392;SDS011;35268;42.642;23.308;2023-09-19T04:40:25;20.88;;;6.60;;
49392;SDS011;35268;42.642;23.308;2023-09-19T04:42:54;15.27;;;7.45;;
49392;SDS011;35268;42.642;23.308;2023-09-19T04:45:23;15.10;;;6.78;;
49392;SDS011;35268;42.642;23.308;2023-09-19T04:47:49;15.10;;;7.20;;
49392;SDS011;35268;42.642;23.308;2023-09-19T04:50:14;20.60;;;7.28;;
49392;SDS011;35268;42.642;23.308;2023-09-19T04:52:40;14.45;;;7.10;;
49392;SDS011;35268;42.642;23.308;2023-09-19T04:55:12;18.10;;;6.97;;
49392;SDS011;35268;42.642;23.308;2023-09-19T05:00:11;31.70;;;6.55;;
49392;SDS011;35268;42.642;23.308;2023-09-19T05:02:42;25.60;;;6.85;;
49392;SDS011;35268;42.642;23.308;2023-09-19T05:05:08;9.18;;;6.00;;
49392;SDS011;35268;42.642;23.308;2023-09-19T05:07:40;9.73;;;6.05;;
49392;SDS011;35268;42.642;23.308;2023-09-19T05:10:06;13.35;;;7.07;;
49392;SDS011;35268;42.642;23.308;2023-09-19T05:12:33;13.70;;;7.18;;
49392;SDS011;35268;42.642;23.308;2023-09-19T05:14:59;15.30;;;6.15;;
49392;SDS011;35268;42.642;23.308;2023-09-19T05:17:26;15.10;;;7.03;;
49392;SDS011;35268;42.642;23.308;2023-09-19T05:19:52;16.02;;;7.38;;
49392;SDS011;35268;42.642;23.308;2023-09-19T05:22:17;14.10;;;7.45;;
49392;SDS011;35268;42.642;23.308;2023-09-19T05:24:43;19.00;;;8.45;;
49392;SDS011;35268;42.642;23.308;2023-09-19T05:27:12;19.90;;;11.00;;
49392;SDS011;35268;42.642;23.308;2023-09-19T05:29:37;26.58;;;14.20;;
49392;SDS011;35268;42.642;23.308;2023-09-19T05:32:03;22.63;;;13.30;;
49392;SDS011;35268;42.642;23.308;2023-09-19T05:34:29;21.17;;;14.85;;
49392;SDS011;35268;42.642;23.308;2023-09-19T05:36:55;21.45;;;12.85;;
49392;SDS011;35268;42.642;23.308;2023-09-19T05:39:21;15.48;;;7.30;;
49392;SDS011;35268;42.642;23.308;2023-09-19T05:41:47;15.48;;;7.63;;
49392;SDS011;35268;42.642;23.308;2023-09-19T05:44:13;28.83;;;7.53;;
49392;SDS011;35268;42.642;23.308;2023-09-19T05:46:39;25.98;;;7.05;;
49392;SDS011;35268;42.642;23.308;2023-09-19T05:49:04;23.45;;;7.07;;
49392;SDS011;35268;42.642;23.308;2023-09-19T05:51:30;15.63;;;6.70;;
49392;SDS011;35268;42.642;23.308;2023-09-19T05:53:55;14.68;;;7.25;;
49392;SDS011;35268;42.642;23.308;2023-09-19T05:56:21;17.00;;;7.10;;
49392;SDS011;35268;42.642;23.308;2023-09-19T05:58:47;20.92;;;6.95;;
49392;SDS011;35268;42.642;23.308;2023-09-19T06:01:12;28.17;;;7.72;;
49392;SDS011;35268;42.642;23.308;2023-09-19T06:03:38;18.13;;;7.40;;
49392;SDS011;35268;42.642;23.308;2023-09-19T06:06:03;18.63;;;7.20;;
49392;SDS011;35268;42.642;23.308;2023-09-19T06:08:31;18.85;;;7.20;;
49392;SDS011;35268;42.642;23.308;2023-09-19T06:10:58;12.95;;;6.45;;
49392;SDS011;35268;42.642;23.308;2023-09-19T06:13:24;12.98;;;6.35;;
49392;SDS011;35268;42.642;23.308;2023-09-19T06:15:51;15.48;;;7.10;;
49392;SDS011;35268;42.642;23.308;2023-09-19T06:18:17;10.90;;;5.70;;
49392;SDS011;35268;42.642;23.308;2023-09-19T06:20:47;18.35;;;6.53;;
49392;SDS011;35268;42.642;23.308;2023-09-19T06:23:16;13.23;;;7.03;;
49392;SDS011;35268;42.642;23.308;2023-09-19T06:25:42;12.85;;;6.47;;
49392;SDS011;35268;42.642;23.308;2023-09-19T06:28:08;27.65;;;6.63;;
49392;SDS011;35268;42.642;23.308;2023-09-19T06:30:37;11.25;;;5.50;;
49392;SDS011;35268;42.642;23.308;2023-09-19T06:33:05;15.93;;;5.93;;
49392;SDS011;35268;42.642;23.308;2023-09-19T06:35:32;10.25;;;6.40;;
49392;SDS011;35268;42.642;23.308;2023-09-19T06:37:59;17.83;;;6.03;;
49392;SDS011;35268;42.642;23.308;2023-09-19T06:40:28;13.88;;;5.10;;
49392;SDS011;35268;42.642;23.308;2023-09-19T06:42:53;14.40;;;4.72;;
49392;SDS011;35268;42.642;23.308;2023-09-19T06:45:19;13.77;;;5.05;;
49392;SDS011;35268;42.642;23.308;2023-09-19T06:47:46;14.25;;;6.13;;
49392;SDS011;35268;42.642;23.308;2023-09-19T06:50:19;11.60;;;6.03;;
49392;SDS011;35268;42.642;23.308;2023-09-19T06:52:47;12.25;;;5.65;;
49392;SDS011;35268;42.642;23.308;2023-09-19T06:55:15;16.17;;;5.10;;
49392;SDS011;35268;42.642;23.308;2023-09-19T06:57:41;9.30;;;4.80;;
49392;SDS011;35268;42.642;23.308;2023-09-19T07:00:10;10.48;;;5.10;;
49392;SDS011;35268;42.642;23.308;2023-09-19T07:03:00;9.23;;;4.57;;
49392;SDS011;35268;42.642;23.308;2023-09-19T07:05:27;11.15;;;4.70;;
49392;SDS011;35268;42.642;23.308;2023-09-19T07:07:53;12.07;;;4.88;;
49392;SDS011;35268;42.642;23.308;2023-09-19T07:10:24;12.43;;;4.87;;
49392;SDS011;35268;42.642;23.308;2023-09-19T07:13:00;10.43;;;4.20;;
49392;SDS011;35268;42.642;23.308;2023-09-19T07:15:26;11.45;;;4.18;;
49392;SDS011;35268;42.642;23.308;2023-09-19T07:17:53;12.30;;;4.78;;
49392;SDS011;35268;42.642;23.308;2023-09-19T07:20:21;10.98;;;4.93;;
49392;SDS011;35268;42.642;23.308;2023-09-19T07:22:51;8.70;;;4.85;;
49392;SDS011;35268;42.642;23.308;2023-09-19T07:25:16;11.82;;;4.88;;
49392;SDS011;35268;42.642;23.308;2023-09-19T07:27:42;15.70;;;4.75;;
49392;SDS011;35268;42.642;23.308;2023-09-19T07:30:08;15.75;;;5.25;;
49392;SDS011;35268;42.642;23.308;2023-09-19T07:32:34;13.18;;;4.82;;
49392;SDS011;35268;42.642;23.308;2023-09-19T07:35:02;16.63;;;6.35;;
49392;SDS011;35268;42.642;23.308;2023-09-19T07:37:29;11.05;;;4.80;;
49392;SDS011;35268;42.642;23.308;2023-09-19T07:39:58;9.68;;;4.88;;
49392;SDS011;35268;42.642;23.308;2023-09-19T07:42:24;13.52;;;4.90;;
49392;SDS011;35268;42.642;23.308;2023-09-19T07:44:51;14.10;;;5.30;;
49392;SDS011;35268;42.642;23.308;2023-09-19T07:47:16;10.15;;;4.25;;
49392;SDS011;35268;42.642;23.308;2023-09-19T07:49:41;10.68;;;4.47;;
49392;SDS011;35268;42.642;23.308;2023-09-19T07:52:08;10.98;;;4.70;;
49392;SDS011;35268;42.642;23.308;2023-09-19T07:54:34;10.15;;;5.30;;
49392;SDS011;35268;42.642;23.308;2023-09-19T07:57:03;17.75;;;6.25;;
49392;SDS011;35268;42.642;23.308;2023-09-19T07:59:29;18.75;;;6.05;;
49392;SDS011;35268;42.642;23.308;2023-09-19T08:01:54;15.38;;;4.72;;
49392;SDS011;35268;42.642;23.308;2023-09-19T08:04:20;10.10;;;4.95;;
49392;SDS011;35268;42.642;23.308;2023-09-19T08:06:45;7.80;;;4.60;;
49392;SDS011;35268;42.642;23.308;2023-09-19T08:09:11;14.73;;;4.57;;
49392;SDS011;35268;42.642;23.308;2023-09-19T08:11:39;6.05;;;3.85;;
49392;SDS011;35268;42.642;23.308;2023-09-19T08:14:04;12.55;;;4.80;;
49392;SDS011;35268;42.642;23.308;2023-09-19T08:16:32;11.23;;;5.25;;
49392;SDS011;35268;42.642;23.308;2023-09-19T08:18:58;12.40;;;4.82;;
49392;SDS011;35268;42.642;23.308;2023-09-19T08:21:23;14.27;;;5.55;;
49392;SDS011;35268;42.642;23.308;2023-09-19T08:23:49;14.80;;;5.90;;
49392;SDS011;35268;42.642;23.308;2023-09-19T08:26:15;17.23;;;5.22;;
49392;SDS011;35268;42.642;23.308;2023-09-19T08:28:40;10.27;;;5.25;;
49392;SDS011;35268;42.642;23.308;2023-09-19T08:31:06;11.93;;;4.55;;
49392;SDS011;35268;42.642;23.308;2023-09-19T08:33:33;12.63;;;4.45;;
49392;SDS011;35268;42.642;23.308;2023-09-19T08:36:00;16.38;;;4.95;;
49392;SDS011;35268;42.642;23.308;2023-09-19T08:38:30;15.32;;;6.43;;
49392;SDS011;35268;42.642;23.308;2023-09-19T08:40:58;7.85;;;4.35;;
49392;SDS011;35268;42.642;23.308;2023-09-19T08:43:25;8.80;;;4.30;;
49392;SDS011;35268;42.642;23.308;2023-09-19T08:45:53;8.98;;;5.05;;
49392;SDS011;35268;42.642;23.308;2023-09-19T08:48:29;10.07;;;4.63;;
49392;SDS011;35268;42.642;23.308;2023-09-19T08:50:56;9.25;;;4.85;;
49392;SDS011;35268;42.642;23.308;2023-09-19T08:53:41;10.25;;;5.20;;
49392;SDS011;35268;42.642;23.308;2023-09-19T08:56:08;8.55;;;4.47;;
49392;SDS011;35268;42.642;23.308;2023-09-19T08:58:39;13.05;;;4.95;;
49392;SDS011;35268;42.642;23.308;2023-09-19T09:01:16;8.85;;;4.90;;
49392;SDS011;35268;42.642;23.308;2023-09-19T09:03:47;11.52;;;5.30;;
49392;SDS011;35268;42.642;23.308;2023-09-19T09:06:14;14.48;;;5.47;;
49392;SDS011;35268;42.642;23.308;2023-09-19T09:08:40;14.20;;;5.50;;
49392;SDS011;35268;42.642;23.308;2023-09-19T09:11:07;12.55;;;5.15;;
49392;SDS011;35268;42.642;23.308;2023-09-19T09:13:34;14.57;;;4.70;;
49392;SDS011;35268;42.642;23.308;2023-09-19T09:16:01;12.20;;;5.05;;
49392;SDS011;35268;42.642;23.308;2023-09-19T09:18:28;18.25;;;5.10;;
49392;SDS011;35268;42.642;23.308;2023-09-19T09:20:55;10.88;;;5.18;;
49392;SDS011;35268;42.642;23.308;2023-09-19T09:23:21;12.85;;;5.68;;
49392;SDS011;35268;42.642;23.308;2023-09-19T09:25:53;16.20;;;5.57;;
49392;SDS011;35268;42.642;23.308;2023-09-19T09:28:20;9.38;;;5.20;;
49392;SDS011;35268;42.642;23.308;2023-09-19T09:30:46;11.93;;;5.30;;
49392;SDS011;35268;42.642;23.308;2023-09-19T09:33:12;24.60;;;5.78;;
49392;SDS011;35268;42.642;23.308;2023-09-19T09:35:54;13.50;;;5.78;;
49392;SDS011;35268;42.642;23.308;2023-09-19T09:38:29;11.75;;;5.57;;
49392;SDS011;35268;42.642;23.308;2023-09-19T09:41:08;12.43;;;5.28;;
49392;SDS011;35268;42.642;23.308;2023-09-19T09:43:35;15.80;;;4.82;;
49392;SDS011;35268;42.642;23.308;2023-09-19T09:46:07;14.23;;;6.25;;
49392;SDS011;35268;42.642;23.308;2023-09-19T09:51:42;20.85;;;5.70;;
49392;SDS011;35268;42.642;23.308;2023-09-19T09:54:13;12.57;;;5.38;;
49392;SDS011;35268;42.642;23.308;2023-09-19T09:56:55;20.20;;;5.85;;
49392;SDS011;35268;42.642;23.308;2023-09-19T10:02:27;13.02;;;4.93;;
49392;SDS011;35268;42.642;23.308;2023-09-19T10:04:57;14.98;;;5.70;;
49392;SDS011;35268;42.642;23.308;2023-09-19T10:07:47;23.27;;;4.93;;
49392;SDS011;35268;42.642;23.308;2023-09-19T10:10:31;15.82;;;5.65;;
49392;SDS011;35268;42.642;23.308;2023-09-19T10:13:18;15.75;;;5.70;;
49392;SDS011;35268;42.642;23.308;2023-09-19T10:15:48;14.00;;;4.85;;
49392;SDS011;35268;42.642;23.308;2023-09-19T10:18:20;11.13;;;5.60;;
49392;SDS011;35268;42.642;23.308;2023-09-19T10:20:48;14.35;;;5.05;;
49392;SDS011;35268;42.642;23.308;2023-09-19T10:23:14;13.02;;;5.60;;
49392;SDS011;35268;42.642;23.308;2023-09-19T10:25:48;19.60;;;4.40;;
49392;SDS011;35268;42.642;23.308;2023-09-19T10:28:15;12.00;;;5.32;;
49392;SDS011;35268;42.642;23.308;2023-09-19T10:30:47;8.02;;;3.97;;
49392;SDS011;35268;42.642;23.308;2023-09-19T10:33:15;16.95;;;4.75;;
49392;SDS011;35268;42.642;23.308;2023-09-19T10:35:46;9.88;;;5.10;;
49392;SDS011;35268;42.642;23.308;2023-09-19T10:38:14;12.35;;;4.93;;
49392;SDS011;35268;42.642;23.308;2023-09-19T10:40:44;14.68;;;5.25;;
49392;SDS011;35268;42.642;23.308;2023-09-19T10:43:15;11.32;;;4.18;;
49392;SDS011;35268;42.642;23.308;2023-09-19T10:45:43;11.13;;;4.90;;
49392;SDS011;35268;42.642;23.308;2023-09-19T10:48:09;20.38;;;6.22;;
49392;SDS011;35268;42.642;23.308;2023-09-19T10:50:41;9.75;;;4.82;;
49392;SDS011;35268;42.642;23.308;2023-09-19T10:53:26;15.10;;;4.47;;
49392;SDS011;35268;42.642;23.308;2023-09-19T10:55:55;16.08;;;5.18;;
49392;SDS011;35268;42.642;23.308;2023-09-19T10:58:28;8.77;;;4.90;;
49392;SDS011;35268;42.642;23.308;2023-09-19T11:00:57;9.48;;;4.82;;
49392;SDS011;35268;42.642;23.308;2023-09-19T11:03:27;16.05;;;4.78;;
49392;SDS011;35268;42.642;23.308;2023-09-19T11:06:02;12.25;;;4.50;;
49392;SDS011;35268;42.642;23.308;2023-09-19T11:08:30;24.05;;;5.03;;
49392;SDS011;35268;42.642;23.308;2023-09-19T11:14:14;13.05;;;4.82;;
49392;SDS011;35268;42.642;23.308;2023-09-19T11:16:50;9.35;;;4.00;;
49392;SDS011;35268;42.642;23.308;2023-09-19T11:30:30;10.77;;;4.97;;
49392;SDS011;35268;42.642;23.308;2023-09-19T11:33:16;9.25;;;4.53;;
49392;SDS011;35268;42.642;23.308;2023-09-19T11:36:03;12.00;;;4.50;;
49392;SDS011;35268;42.642;23.308;2023-09-19T11:43:45;14.90;;;4.22;;
49392;SDS011;35268;42.642;23.308;2023-09-19T11:46:12;21.10;;;4.63;;
49392;SDS011;35268;42.642;23.308;2023-09-19T11:48:41;10.13;;;3.85;;
49392;SDS011;35268;42.642;23.308;2023-09-19T11:51:12;15.50;;;5.30;;
49392;SDS011;35268;42.642;23.308;2023-09-19T11:56:18;13.48;;;4.70;;
49392;SDS011;35268;42.642;23.308;2023-09-19T11:58:46;11.48;;;4.60;;
49392;SDS011;35268;42.642;23.308;2023-09-19T12:01:14;8.55;;;4.68;;
49392;SDS011;35268;42.642;23.308;2023-09-19T12:03:46;9.52;;;4.50;;
49392;SDS011;35268;42.642;23.308;2023-09-19T12:08:43;9.63;;;4.53;;
49392;SDS011;35268;42.642;23.308;2023-09-19T12:11:12;12.55;;;4.57;;
49392;SDS011;35268;42.642;23.308;2023-09-19T12:13:43;14.68;;;3.95;;
49392;SDS011;35268;42.642;23.308;2023-09-19T12:16:13;13.55;;;4.38;;
49392;SDS011;35268;42.642;23.308;2023-09-19T12:18:40;23.83;;;5.03;;
49392;SDS011;35268;42.642;23.308;2023-09-19T12:21:18;12.05;;;4.22;;
49392;SDS011;35268;42.642;23.308;2023-09-19T12:24:33;15.60;;;5.53;;
49392;SDS011;35268;42.642;23.308;2023-09-19T12:26:44;11.55;;;4.40;;
49392;SDS011;35268;42.642;23.308;2023-09-19T12:29:19;10.88;;;4.25;;
49392;SDS011;35268;42.642;23.308;2023-09-19T12:31:55;7.13;;;4.28;;
49392;SDS011;35268;42.642;23.308;2023-09-19T12:34:31;11.65;;;4.72;;
49392;SDS011;35268;42.642;23.308;2023-09-19T12:37:07;11.98;;;4.97;;
49392;SDS011;35268;42.642;23.308;2023-09-19T12:39:46;11.18;;;3.97;;
49392;SDS011;35268;42.642;23.308;2023-09-19T12:42:25;15.35;;;4.90;;
49392;SDS011;35268;42.642;23.308;2023-09-19T12:44:57;14.23;;;4.40;;
49392;SDS011;35268;42.642;23.308;2023-09-19T12:47:25;12.30;;;5.00;;
49392;SDS011;35268;42.642;23.308;2023-09-19T12:52:55;18.13;;;3.72;;
49392;SDS011;35268;42.642;23.308;2023-09-19T12:55:30;11.93;;;4.55;;
49392;SDS011;35268;42.642;23.308;2023-09-19T12:58:08;13.23;;;3.85;;
49392;SDS011;35268;42.642;23.308;2023-09-19T13:00:43;8.45;;;3.72;;
49392;SDS011;35268;42.642;23.308;2023-09-19T13:03:13;9.98;;;3.70;;
49392;SDS011;35268;42.642;23.308;2023-09-19T13:13:31;11.40;;;3.78;;
49392;SDS011;35268;42.642;23.308;2023-09-19T13:16:01;10.50;;;3.83;;
49392;SDS011;35268;42.642;23.308;2023-09-19T13:18:28;11.35;;;3.95;;
49392;SDS011;35268;42.642;23.308;2023-09-19T13:21:07;9.68;;;2.95;;
49392;SDS011;35268;42.642;23.308;2023-09-19T13:23:40;7.15;;;3.95;;
49392;SDS011;35268;42.642;23.308;2023-09-19T13:26:08;9.98;;;3.28;;
49392;SDS011;35268;42.642;23.308;2023-09-19T13:28:34;10.02;;;4.88;;
49392;SDS011;35268;42.642;23.308;2023-09-19T13:30:59;8.02;;;3.20;;
49392;SDS011;35268;42.642;23.308;2023-09-19T13:33:24;8.73;;;3.95;;
49392;SDS011;35268;42.642;23.308;2023-09-19T13:35:51;12.52;;;3.72;;
49392;SDS011;35268;42.642;23.308;2023-09-19T13:38:17;11.40;;;3.85;;
49392;SDS011;35268;42.642;23.308;2023-09-19T13:40:47;10.85;;;4.15;;
49392;SDS011;35268;42.642;23.308;2023-09-19T13:43:12;7.53;;;3.42;;
49392;SDS011;35268;42.642;23.308;2023-09-19T13:45:38;20.15;;;3.72;;
49392;SDS011;35268;42.642;23.308;2023-09-19T13:48:07;6.00;;;3.33;;
49392;SDS011;35268;42.642;23.308;2023-09-19T13:50:33;6.75;;;4.28;;
49392;SDS011;35268;42.642;23.308;2023-09-19T13:53:01;11.27;;;3.15;;
49392;SDS011;35268;42.642;23.308;2023-09-19T13:55:27;6.43;;;3.17;;
49392;SDS011;35268;42.642;23.308;2023-09-19T13:57:53;12.45;;;3.10;;
49392;SDS011;35268;42.642;23.308;2023-09-19T14:00:24;7.22;;;3.78;;
49392;SDS011;35268;42.642;23.308;2023-09-19T14:02:49;9.27;;;3.55;;
49392;SDS011;35268;42.642;23.308;2023-09-19T14:05:15;8.60;;;3.20;;
49392;SDS011;35268;42.642;23.308;2023-09-19T14:07:41;7.13;;;3.45;;
49392;SDS011;35268;42.642;23.308;2023-09-19T14:10:08;9.00;;;3.55;;
49392;SDS011;35268;42.642;23.308;2023-09-19T14:12:35;10.05;;;3.10;;
49392;SDS011;35268;42.642;23.308;2023-09-19T14:15:02;12.45;;;3.72;;
49392;SDS011;35268;42.642;23.308;2023-09-19T14:17:28;4.93;;;3.15;;
49392;SDS011;35268;42.642;23.308;2023-09-19T14:19:53;12.13;;;5.57;;
49392;SDS011;35268;42.642;23.308;2023-09-19T14:22:19;13.48;;;7.15;;
49392;SDS011;35268;42.642;23.308;2023-09-19T14:24:44;13.38;;;7.50;;
49392;SDS011;35268;42.642;23.308;2023-09-19T14:27:10;10.57;;;7.13;;
49392;SDS011;35268;42.642;23.308;2023-09-19T14:29:36;11.02;;;3.92;;
49392;SDS011;35268;42.642;23.308;2023-09-19T14:32:02;9.80;;;3.50;;
49392;SDS011;35268;42.642;23.308;2023-09-19T14:34:28;7.90;;;3.58;;
49392;SDS011;35268;42.642;23.308;2023-09-19T14:36:53;10.45;;;3.53;;
49392;SDS011;35268;42.642;23.308;2023-09-19T14:39:21;9.68;;;4.10;;
49392;SDS011;35268;42.642;23.308;2023-09-19T14:41:47;7.47;;;3.35;;
49392;SDS011;35268;42.642;23.308;2023-09-19T14:44:12;8.30;;;4.75;;
49392;SDS011;35268;42.642;23.308;2023-09-19T14:46:38;6.57;;;4.40;;
49392;SDS011;35268;42.642;23.308;2023-09-19T14:49:04;8.35;;;4.30;;
49392;SDS011;35268;42.642;23.308;2023-09-19T14:51:29;12.30;;;5.13;;
49392;SDS011;35268;42.642;23.308;2023-09-19T14:53:55;10.50;;;5.70;;
49392;SDS011;35268;42.642;23.308;2023-09-19T14:56:21;12.18;;;5.95;;
49392;SDS011;35268;42.642;23.308;2023-09-19T14:58:47;12.23;;;5.15;;
49392;SDS011;35268;42.642;23.308;2023-09-19T15:01:13;14.85;;;6.30;;
49392;SDS011;35268;42.642;23.308;2023-09-19T15:03:40;16.13;;;6.55;;
49392;SDS011;35268;42.642;23.308;2023-09-19T15:06:09;10.30;;;3.90;;
49392;SDS011;35268;42.642;23.308;2023-09-19T15:08:39;8.48;;;3.88;;
49392;SDS011;35268;42.642;23.308;2023-09-19T15:11:06;8.20;;;4.55;;
49392;SDS011;35268;42.642;23.308;2023-09-19T15:13:35;9.50;;;4.45;;
49392;SDS011;35268;42.642;23.308;2023-09-19T15:16:02;11.90;;;3.83;;
49392;SDS011;35268;42.642;23.308;2023-09-19T15:18:38;18.17;;;5.18;;
49392;SDS011;35268;42.642;23.308;2023-09-19T15:21:06;6.43;;;3.38;;
49392;SDS011;35268;42.642;23.308;2023-09-19T15:23:35;9.82;;;3.78;;
49392;SDS011;35268;42.642;23.308;2023-09-19T15:26:05;19.50;;;4.00;;
49392;SDS011;35268;42.642;23.308;2023-09-19T15:28:31;11.05;;;3.78;;
49392;SDS011;35268;42.642;23.308;2023-09-19T15:31:05;10.77;;;3.97;;
49392;SDS011;35268;42.642;23.308;2023-09-19T15:33:34;10.90;;;4.03;;